createdAt,value
2023-05-20T00:01:53.583Z,12.10
2023-05-20T00:04:21.107Z,12.10
2023-05-20T00:06:48.440Z,12.00
2023-05-20T00:09:17.425Z,12.00
2023-05-20T00:11:46.178Z,12.00
2023-05-20T00:14:13.519Z,12.00
2023-05-20T00:16:41.226Z,12.00
2023-05-20T00:19:08.794Z,12.00
2023-05-20T00:21:36.176Z,12.00
2023-05-20T00:24:03.488Z,12.00
2023-05-20T00:26:30.985Z,12.00
2023-05-20T00:28:58.211Z,12.00
2023-05-20T00:31:25.651Z,12.00
2023-05-20T00:33:52.964Z,12.00
2023-05-20T00:36:20.222Z,12.00
2023-05-20T00:38:47.662Z,12.10
2023-05-20T00:41:15.023Z,12.00
2023-05-20T00:43:42.322Z,12.00
2023-05-20T00:46:10.784Z,12.00
2023-05-20T00:48:43.542Z,12.00
2023-05-20T00:51:13.109Z,11.90
2023-05-20T00:53:41.461Z,12.00
2023-05-20T00:56:09.148Z,12.00
2023-05-20T00:58:38.025Z,11.90
2023-05-20T01:01:06.574Z,12.00
2023-05-20T01:03:34.283Z,12.00
2023-05-20T01:06:02.258Z,12.00
2023-05-20T01:08:29.843Z,11.90
2023-05-20T01:11:26.242Z,11.80
2023-05-20T01:14:02.196Z,11.80
2023-05-20T01:16:31.889Z,11.80
2023-05-20T01:19:00.010Z,11.80
2023-05-20T01:21:30.717Z,11.90
2023-05-20T01:23:58.006Z,11.90
2023-05-20T01:26:27.279Z,11.90
2023-05-20T01:28:54.785Z,11.90
2023-05-20T01:31:25.932Z,11.90
2023-05-20T01:33:58.532Z,11.90
2023-05-20T01:36:27.676Z,11.90
2023-05-20T01:38:56.390Z,11.90
2023-05-20T01:41:27.085Z,11.90
2023-05-20T01:43:55.699Z,11.80
2023-05-20T01:46:23.250Z,11.80
2023-05-20T01:48:50.748Z,11.80
2023-05-20T01:51:18.098Z,11.80
2023-05-20T01:53:45.424Z,11.90
2023-05-20T01:56:12.733Z,11.80
2023-05-20T01:58:39.991Z,11.80
2023-05-20T02:01:25.749Z,11.80
2023-05-20T02:04:11.965Z,11.80
2023-05-20T02:06:39.283Z,11.80
2023-05-20T02:09:06.527Z,11.80
2023-05-20T02:11:33.806Z,11.90
2023-05-20T02:14:01.115Z,11.90
2023-05-20T02:16:28.523Z,11.90
2023-05-20T02:18:55.883Z,11.90
2023-05-20T02:21:23.249Z,11.80
2023-05-20T02:23:50.589Z,11.90
2023-05-20T02:26:18.004Z,11.80
2023-05-20T02:28:46.949Z,11.80
2023-05-20T02:31:14.282Z,11.90
2023-05-20T02:33:41.551Z,11.90
2023-05-20T02:36:08.969Z,11.90
2023-05-20T02:38:36.241Z,11.90
2023-05-20T02:41:04.695Z,11.90
2023-05-20T02:43:33.252Z,11.90
2023-05-20T02:46:00.828Z,11.90
2023-05-20T02:48:28.297Z,11.80
2023-05-20T02:50:55.858Z,11.90
2023-05-20T02:53:23.087Z,11.90
2023-05-20T02:55:50.623Z,11.90
2023-05-20T02:58:17.867Z,11.90
2023-05-20T03:00:45.109Z,11.90
2023-05-20T03:03:13.710Z,11.80
2023-05-20T03:05:42.627Z,11.80
2023-05-20T03:08:10.708Z,11.80
2023-05-20T03:10:41.024Z,11.80
2023-05-20T03:13:10.070Z,11.70
2023-05-20T03:15:41.334Z,11.70
2023-05-20T03:18:08.881Z,11.80
2023-05-20T03:20:38.906Z,11.70
2023-05-20T03:23:06.720Z,11.80
2023-05-20T03:25:34.524Z,11.80
2023-05-20T03:28:02.115Z,11.70
2023-05-20T03:30:29.664Z,11.80
2023-05-20T03:32:57.957Z,11.70
2023-05-20T03:35:26.354Z,11.80
2023-05-20T03:37:53.732Z,11.80
2023-05-20T03:40:21.530Z,11.80
2023-05-20T03:42:50.053Z,11.80
2023-05-20T03:45:17.308Z,11.80
2023-05-20T03:47:44.633Z,11.90
2023-05-20T03:50:12.061Z,11.90
2023-05-20T03:52:41.065Z,11.90
2023-05-20T03:55:08.985Z,11.90
2023-05-20T03:57:36.760Z,11.90
2023-05-20T04:00:10.706Z,12.00
2023-05-20T04:02:38.913Z,12.00
2023-05-20T04:05:08.998Z,12.00
2023-05-20T04:07:36.671Z,12.00
2023-05-20T04:10:05.493Z,12.00
2023-05-20T04:12:32.876Z,12.00
2023-05-20T04:15:02.490Z,12.00
2023-05-20T04:17:30.899Z,12.10
2023-05-20T04:20:00.034Z,12.10
2023-05-20T04:22:27.820Z,12.20
2023-05-20T04:24:56.597Z,12.20
2023-05-20T04:27:23.908Z,12.20
2023-05-20T04:29:52.512Z,12.30
2023-05-20T04:32:20.098Z,12.30
2023-05-20T04:34:48.213Z,12.30
2023-05-20T04:37:16.234Z,12.20
2023-05-20T04:39:43.964Z,12.20
2023-05-20T04:42:11.229Z,12.30
2023-05-20T04:44:39.190Z,12.40
2023-05-20T04:47:09.703Z,12.40
2023-05-20T04:49:37.075Z,12.50
2023-05-20T04:52:04.886Z,12.50
2023-05-20T04:54:32.981Z,12.70
2023-05-20T04:57:00.345Z,12.70
2023-05-20T04:59:27.638Z,12.70
2023-05-20T05:01:54.996Z,12.80
2023-05-20T05:04:23.296Z,12.80
2023-05-20T05:06:50.713Z,12.80
2023-05-20T05:09:18.388Z,12.90
2023-05-20T05:11:45.668Z,12.90
2023-05-20T05:14:12.910Z,12.90
2023-05-20T05:16:40.170Z,12.90
2023-05-20T05:19:08.915Z,12.90
2023-05-20T05:21:36.312Z,12.90
2023-05-20T05:24:03.686Z,12.90
2023-05-20T05:26:31.112Z,12.90
2023-05-20T05:28:58.571Z,12.90
2023-05-20T05:31:25.907Z,12.90
2023-05-20T05:33:53.220Z,12.80
2023-05-20T05:36:20.487Z,12.90
2023-05-20T05:38:47.915Z,12.90
2023-05-20T05:41:15.239Z,13.00
2023-05-20T05:43:44.512Z,13.10
2023-05-20T05:46:11.944Z,13.10
2023-05-20T05:48:40.120Z,13.20
2023-05-20T05:51:07.400Z,13.30
2023-05-20T05:53:34.793Z,13.30
2023-05-20T05:56:02.594Z,13.30
2023-05-20T05:58:29.918Z,13.40
2023-05-20T06:00:57.690Z,13.30
2023-05-20T06:03:25.296Z,13.40
2023-05-20T06:05:52.996Z,13.30
2023-05-20T06:08:20.289Z,13.30
2023-05-20T06:10:51.610Z,13.40
2023-05-20T06:13:19.018Z,13.30
2023-05-20T06:15:46.590Z,13.40
2023-05-20T06:18:13.969Z,13.40
2023-05-20T06:20:41.429Z,13.40
2023-05-20T06:23:08.744Z,13.30
2023-05-20T06:25:36.161Z,13.20
2023-05-20T06:28:03.627Z,13.30
2023-05-20T06:30:30.932Z,13.40
2023-05-20T06:32:58.370Z,13.70
2023-05-20T06:35:26.282Z,13.90
2023-05-20T06:37:53.751Z,14.20
2023-05-20T06:40:22.086Z,14.50
2023-05-20T06:42:49.381Z,14.50
2023-05-20T06:45:16.754Z,14.60
2023-05-20T06:47:44.518Z,14.90
2023-05-20T06:50:12.182Z,15.10
2023-05-20T06:52:39.452Z,15.10
2023-05-20T06:55:07.070Z,15.20
2023-05-20T06:57:34.360Z,15.20
2023-05-20T07:00:01.806Z,15.20
2023-05-20T07:02:29.075Z,15.40
2023-05-20T07:04:56.358Z,15.50
2023-05-20T07:07:23.578Z,15.70
2023-05-20T07:09:50.879Z,15.80
2023-05-20T07:12:18.117Z,15.90
2023-05-20T07:14:45.424Z,16.00
2023-05-20T07:17:13.433Z,15.90
2023-05-20T07:19:40.752Z,16.10
2023-05-20T07:22:08.098Z,16.40
2023-05-20T07:24:36.503Z,16.40
2023-05-20T07:27:04.144Z,16.70
2023-05-20T07:29:31.849Z,16.90
2023-05-20T07:31:59.233Z,16.90
2023-05-20T07:34:26.702Z,17.00
2023-05-20T07:36:54.089Z,17.20
2023-05-20T07:39:21.425Z,17.30
2023-05-20T07:41:48.725Z,17.30
2023-05-20T07:44:16.153Z,17.70
2023-05-20T07:46:43.552Z,17.70
2023-05-20T07:49:11.379Z,17.60
2023-05-20T07:51:38.683Z,18.00
2023-05-20T07:54:06.477Z,17.90
2023-05-20T07:56:34.133Z,18.10
2023-05-20T07:59:03.330Z,17.90
2023-05-20T08:01:30.995Z,18.00
2023-05-20T08:03:58.670Z,18.00
2023-05-20T08:06:28.738Z,18.00
2023-05-20T08:08:57.086Z,18.00
2023-05-20T08:11:24.529Z,17.90
2023-05-20T08:13:51.870Z,18.10
2023-05-20T08:16:21.252Z,18.40
2023-05-20T08:18:48.571Z,18.20
2023-05-20T08:21:16.028Z,18.40
2023-05-20T08:23:43.327Z,18.70
2023-05-20T08:26:10.848Z,18.20
2023-05-20T08:28:38.339Z,17.70
2023-05-20T08:31:06.108Z,17.70
2023-05-20T08:33:33.469Z,17.60
2023-05-20T08:36:00.955Z,17.50
2023-05-20T08:38:28.311Z,17.50
2023-05-20T08:40:57.367Z,17.50
2023-05-20T08:43:25.911Z,18.00
2023-05-20T08:45:53.430Z,18.20
2023-05-20T08:48:23.988Z,18.40
2023-05-20T08:50:52.493Z,18.70
2023-05-20T08:53:22.120Z,18.70
2023-05-20T08:56:01.469Z,18.80
2023-05-20T08:58:35.471Z,19.10
2023-05-20T09:01:03.154Z,19.40
2023-05-20T09:03:30.668Z,19.70
2023-05-20T09:06:08.713Z,19.80
2023-05-20T09:08:36.530Z,19.50
2023-05-20T09:11:04.005Z,19.10
2023-05-20T09:13:34.849Z,19.00
2023-05-20T09:16:03.397Z,18.70
2023-05-20T09:18:31.514Z,19.20
2023-05-20T09:21:04.625Z,19.60
2023-05-20T09:23:32.057Z,19.90
2023-05-20T09:26:02.590Z,19.90
2023-05-20T09:28:29.831Z,20.20
2023-05-20T09:30:59.891Z,20.20
2023-05-20T09:33:32.150Z,19.90
2023-05-20T09:36:08.245Z,20.10
2023-05-20T09:38:39.819Z,20.60
2023-05-20T09:41:12.519Z,20.70
2023-05-20T09:43:43.088Z,20.50
2023-05-20T09:46:11.431Z,20.90
2023-05-20T09:48:39.983Z,20.80
2023-05-20T09:51:08.167Z,20.70
2023-05-20T09:53:36.705Z,20.20
2023-05-20T09:56:04.479Z,20.20
2023-05-20T09:58:35.835Z,20.40
2023-05-20T10:01:03.345Z,19.90
2023-05-20T10:03:30.797Z,20.20
2023-05-20T10:06:10.206Z,19.90
2023-05-20T10:09:00.794Z,19.60
2023-05-20T10:12:19.354Z,19.90
2023-05-20T10:14:53.188Z,20.10
2023-05-20T10:17:24.507Z,20.60
2023-05-20T10:19:59.315Z,20.80
2023-05-20T10:22:29.257Z,21.30
2023-05-20T10:25:01.273Z,21.10
2023-05-20T10:27:28.568Z,21.10
2023-05-20T10:30:00.186Z,21.30
2023-05-20T10:32:29.383Z,21.30
2023-05-20T10:35:10.818Z,21.50
2023-05-20T10:37:43.551Z,21.50
2023-05-20T10:40:13.190Z,21.30
2023-05-20T10:42:41.429Z,21.00
2023-05-20T10:45:10.210Z,21.10
2023-05-20T10:47:53.707Z,21.20
2023-05-20T10:50:41.444Z,21.40
2023-05-20T10:53:29.414Z,21.60
2023-05-20T10:56:00.606Z,21.50
2023-05-20T10:58:27.950Z,21.40
2023-05-20T11:00:56.355Z,21.20
2023-05-20T11:03:24.468Z,21.40
2023-05-20T11:05:52.446Z,21.80
2023-05-20T11:08:27.635Z,22.20
2023-05-20T11:10:59.643Z,22.60
2023-05-20T11:13:27.249Z,23.00
2023-05-20T11:15:55.623Z,22.60
2023-05-20T11:18:22.921Z,22.30
2023-05-20T11:20:51.212Z,22.10
2023-05-20T11:23:19.297Z,21.50
2023-05-20T11:25:46.845Z,21.70
2023-05-20T11:28:14.759Z,21.40
2023-05-20T11:30:45.651Z,21.60
2023-05-20T11:33:14.304Z,21.80
2023-05-20T11:35:46.755Z,22.10
2023-05-20T11:38:14.519Z,21.90
2023-05-20T11:40:51.290Z,22.20
2023-05-20T11:43:19.890Z,22.40
2023-05-20T11:45:52.885Z,22.60
2023-05-20T11:48:20.496Z,22.50
2023-05-20T11:50:48.692Z,22.30
2023-05-20T11:53:21.632Z,22.30
2023-05-20T11:55:55.055Z,21.90
2023-05-20T11:58:27.309Z,21.60
2023-05-20T12:01:01.860Z,21.70
2023-05-20T12:03:33.149Z,22.00
2023-05-20T12:06:04.170Z,22.20
2023-05-20T12:08:31.494Z,22.00
2023-05-20T12:10:58.829Z,22.00
2023-05-20T12:13:26.126Z,22.20
2023-05-20T12:15:53.645Z,22.20
2023-05-20T12:18:22.786Z,22.10
2023-05-20T12:20:50.098Z,22.20
2023-05-20T12:23:17.326Z,22.30
2023-05-20T12:25:47.383Z,22.50
2023-05-20T12:28:14.757Z,22.50
2023-05-20T12:30:42.227Z,22.50
2023-05-20T12:33:09.808Z,22.70
2023-05-20T12:35:41.946Z,23.10
2023-05-20T12:38:09.769Z,23.40
2023-05-20T12:40:38.057Z,23.60
2023-05-20T12:43:05.994Z,24.00
2023-05-20T12:45:33.673Z,24.20
2023-05-20T12:48:01.452Z,24.10
2023-05-20T12:50:29.038Z,24.00
2023-05-20T12:52:56.476Z,24.10
2023-05-20T12:55:24.046Z,24.00
2023-05-20T12:57:51.536Z,23.50
2023-05-20T13:00:18.863Z,23.30
2023-05-20T13:02:46.311Z,22.80
2023-05-20T13:05:13.880Z,22.30
2023-05-20T13:07:41.292Z,22.00
2023-05-20T13:10:10.593Z,21.80
2023-05-20T13:12:38.561Z,21.60
2023-05-20T13:15:06.622Z,21.40
2023-05-20T13:17:34.005Z,21.00
2023-05-20T13:20:01.390Z,20.60
2023-05-20T13:22:28.646Z,20.10
2023-05-20T13:24:55.949Z,19.70
2023-05-20T13:27:23.270Z,19.10
2023-05-20T13:29:50.727Z,18.70
2023-05-20T13:32:18.097Z,18.60
2023-05-20T13:34:45.461Z,18.90
2023-05-20T13:37:12.745Z,19.20
2023-05-20T13:39:39.995Z,19.50
2023-05-20T13:42:07.261Z,19.50
2023-05-20T13:44:34.584Z,19.60
2023-05-20T13:47:01.977Z,19.70
2023-05-20T13:49:29.209Z,19.40
2023-05-20T13:51:56.505Z,19.40
2023-05-20T13:54:23.830Z,19.50
2023-05-20T13:56:51.710Z,19.70
2023-05-20T13:59:19.139Z,19.50
2023-05-20T14:01:46.598Z,19.60
2023-05-20T14:04:13.991Z,19.40
2023-05-20T14:06:41.594Z,19.30
2023-05-20T14:09:09.401Z,19.10
2023-05-20T14:11:36.959Z,18.90
2023-05-20T14:14:04.390Z,18.70
2023-05-20T14:16:32.975Z,18.60
2023-05-20T14:19:00.475Z,18.40
2023-05-20T14:21:27.814Z,18.20
2023-05-20T14:23:55.191Z,18.10
2023-05-20T14:26:22.538Z,17.80
2023-05-20T14:28:50.236Z,17.80
2023-05-20T14:31:17.713Z,17.80
2023-05-20T14:33:44.998Z,18.10
2023-05-20T14:36:12.492Z,18.10
2023-05-20T14:38:39.753Z,18.30
2023-05-20T14:41:07.177Z,18.60
2023-05-20T14:43:34.542Z,18.80
2023-05-20T14:46:03.494Z,19.00
2023-05-20T14:48:30.966Z,19.20
2023-05-20T14:50:58.426Z,19.30
2023-05-20T14:53:25.846Z,19.30
2023-05-20T14:55:53.161Z,19.60
2023-05-20T14:58:20.485Z,19.80
2023-05-20T15:00:47.841Z,19.80
2023-05-20T15:03:15.254Z,19.80
2023-05-20T15:05:42.801Z,19.70
2023-05-20T15:08:10.124Z,19.80
2023-05-20T15:10:37.930Z,19.70
2023-05-20T15:13:05.521Z,19.60
2023-05-20T15:15:34.079Z,19.50
2023-05-20T15:18:02.018Z,19.30
2023-05-20T15:20:30.482Z,19.10
2023-05-20T15:23:00.811Z,19.00
2023-05-20T15:25:28.341Z,18.90
2023-05-20T15:27:55.898Z,18.70
2023-05-20T15:30:23.325Z,18.50
2023-05-20T15:32:50.697Z,18.40
2023-05-20T15:35:17.968Z,18.20
2023-05-20T15:37:45.455Z,18.10
2023-05-20T15:40:12.858Z,17.90
2023-05-20T15:42:40.110Z,17.90
2023-05-20T15:45:07.843Z,18.10
2023-05-20T15:47:35.205Z,18.20
2023-05-20T15:50:05.346Z,18.10
2023-05-20T15:52:32.700Z,18.20
2023-05-20T15:55:00.020Z,18.40
2023-05-20T15:57:27.351Z,18.30
2023-05-20T15:59:54.703Z,18.40
2023-05-20T16:02:22.132Z,18.70
2023-05-20T16:04:49.509Z,18.90
2023-05-20T16:07:17.002Z,18.90
2023-05-20T16:09:44.351Z,18.90
2023-05-20T16:12:12.403Z,19.00
2023-05-20T16:14:39.703Z,19.10
2023-05-20T16:17:07.022Z,19.00
2023-05-20T16:19:34.321Z,19.00
2023-05-20T16:22:01.629Z,19.10
2023-05-20T16:24:28.990Z,19.20
2023-05-20T16:26:56.461Z,19.20
2023-05-20T16:29:23.757Z,19.30
2023-05-20T16:31:51.091Z,19.10
2023-05-20T16:34:18.561Z,19.10
2023-05-20T16:36:46.462Z,18.80
2023-05-20T16:39:15.048Z,18.70
2023-05-20T16:41:43.179Z,18.60
2023-05-20T16:44:11.138Z,18.50
2023-05-20T16:46:38.515Z,18.30
2023-05-20T16:49:05.915Z,18.10
2023-05-20T16:51:33.231Z,17.90
2023-05-20T16:54:00.648Z,17.70
2023-05-20T16:56:28.491Z,17.60
2023-05-20T16:58:55.867Z,17.70
2023-05-20T17:01:23.982Z,17.60
2023-05-20T17:03:51.318Z,17.60
2023-05-20T17:06:18.613Z,17.60
2023-05-20T17:08:46.169Z,17.50
2023-05-20T17:11:13.443Z,17.60
2023-05-20T17:13:41.710Z,17.50
2023-05-20T17:16:09.985Z,17.40
2023-05-20T17:18:37.709Z,17.30
2023-05-20T17:21:05.128Z,17.20
2023-05-20T17:23:32.439Z,17.10
2023-05-20T17:25:59.779Z,17.00
2023-05-20T17:28:27.128Z,16.90
2023-05-20T17:30:54.489Z,16.80
2023-05-20T17:33:21.872Z,16.70
2023-05-20T17:35:49.228Z,16.60
2023-05-20T17:38:16.511Z,16.60
2023-05-20T17:40:43.881Z,16.50
2023-05-20T17:43:11.210Z,16.30
2023-05-20T17:45:38.504Z,16.10
2023-05-20T17:48:08.187Z,16.10
2023-05-20T17:50:37.621Z,16.10
2023-05-20T17:53:05.274Z,16.10
2023-05-20T17:55:36.162Z,16.10
2023-05-20T17:58:03.939Z,16.00
2023-05-20T18:00:34.677Z,15.90
2023-05-20T18:03:02.293Z,15.90
2023-05-20T18:05:29.782Z,15.90
2023-05-20T18:07:57.560Z,15.80
2023-05-20T18:10:24.798Z,15.70
2023-05-20T18:12:52.212Z,15.60
2023-05-20T18:15:19.607Z,15.60
2023-05-20T18:17:47.063Z,15.60
2023-05-20T18:20:14.771Z,15.50
2023-05-20T18:22:45.444Z,15.40
2023-05-20T18:25:16.075Z,15.50
2023-05-20T18:27:43.675Z,15.50
2023-05-20T18:30:11.144Z,15.40
2023-05-20T18:32:39.142Z,15.40
2023-05-20T18:35:07.057Z,15.40
2023-05-20T18:37:34.688Z,15.30
2023-05-20T18:40:02.581Z,15.20
2023-05-20T18:42:29.972Z,15.20
2023-05-20T18:44:57.274Z,15.00
2023-05-20T18:47:24.669Z,15.00
2023-05-20T18:49:52.003Z,15.00
2023-05-20T18:52:19.504Z,14.90
2023-05-20T18:55:06.052Z,14.80
2023-05-20T18:57:33.623Z,14.80
2023-05-20T19:00:02.488Z,14.80
2023-05-20T19:02:29.908Z,14.80
2023-05-20T19:04:57.336Z,14.80
2023-05-20T19:07:24.602Z,14.70
2023-05-20T19:09:52.156Z,14.70
2023-05-20T19:12:19.389Z,14.70
2023-05-20T19:14:46.744Z,14.60
2023-05-20T19:17:14.430Z,14.60
2023-05-20T19:19:41.716Z,14.60
2023-05-20T19:22:09.254Z,14.50
2023-05-20T19:24:36.597Z,14.40
2023-05-20T19:27:04.172Z,14.50
2023-05-20T19:29:31.465Z,14.40
2023-05-20T19:31:58.830Z,14.40
2023-05-20T19:34:26.295Z,14.30
2023-05-20T19:36:53.565Z,14.30
2023-05-20T19:39:21.616Z,14.40
2023-05-20T19:41:48.928Z,14.30
2023-05-20T19:44:16.201Z,14.20
2023-05-20T19:46:43.452Z,14.10
2023-05-20T19:49:11.097Z,14.10
2023-05-20T19:51:38.992Z,14.10
2023-05-20T19:54:06.341Z,14.10
2023-05-20T19:56:33.628Z,14.20
2023-05-20T19:59:01.771Z,14.40
2023-05-20T20:01:29.386Z,14.40
2023-05-20T20:03:56.753Z,14.20
2023-05-20T20:06:24.012Z,14.20
2023-05-20T20:08:51.375Z,14.20
2023-05-20T20:11:18.622Z,14.20
2023-05-20T20:13:46.004Z,14.20
2023-05-20T20:16:13.519Z,14.30
2023-05-20T20:18:41.561Z,14.30
2023-05-20T20:21:11.048Z,14.30
2023-05-20T20:23:38.397Z,14.30
2023-05-20T20:26:06.420Z,14.30
2023-05-20T20:28:33.973Z,14.30
2023-05-20T20:31:01.505Z,14.20
2023-05-20T20:33:28.711Z,14.20
2023-05-20T20:35:56.960Z,14.20
2023-05-20T20:38:24.287Z,14.20
2023-05-20T20:40:53.662Z,14.10
2023-05-20T20:43:22.952Z,14.10
2023-05-20T20:45:53.252Z,14.00
2023-05-20T20:48:26.801Z,14.00
2023-05-20T20:50:54.634Z,14.00
2023-05-20T20:53:22.332Z,13.80
2023-05-20T20:55:51.420Z,13.80
2023-05-20T20:58:19.099Z,13.80
2023-05-20T21:00:48.690Z,13.80
2023-05-20T21:03:16.328Z,13.70
2023-05-20T21:05:44.532Z,13.60
2023-05-20T21:08:13.297Z,13.60
2023-05-20T21:10:40.745Z,13.50
2023-05-20T21:13:08.142Z,13.50
2023-05-20T21:15:35.849Z,13.40
2023-05-20T21:18:03.639Z,13.40
2023-05-20T21:20:31.105Z,13.30
2023-05-20T21:22:58.379Z,13.20
2023-05-20T21:25:25.664Z,13.20
2023-05-20T21:27:53.023Z,13.20
2023-05-20T21:30:20.488Z,13.20
2023-05-20T21:32:47.753Z,13.20
2023-05-20T21:35:15.205Z,13.10
2023-05-20T21:37:42.537Z,13.20
2023-05-20T21:40:10.145Z,13.00
2023-05-20T21:42:37.896Z,13.00
2023-05-20T21:45:05.882Z,13.00
2023-05-20T21:47:33.149Z,13.00
2023-05-20T21:50:00.462Z,12.90
2023-05-20T21:52:27.706Z,12.80
2023-05-20T21:54:55.173Z,12.90
2023-05-20T21:57:22.543Z,12.80
2023-05-20T21:59:50.379Z,12.80
2023-05-20T22:02:17.845Z,12.60
2023-05-20T22:04:45.452Z,12.60
2023-05-20T22:07:12.787Z,12.60
2023-05-20T22:09:40.119Z,12.70
2023-05-20T22:12:07.897Z,12.60
2023-05-20T22:14:35.236Z,12.60
2023-05-20T22:17:03.256Z,12.70
2023-05-20T22:19:30.667Z,12.60
2023-05-20T22:21:58.117Z,12.70
2023-05-20T22:24:25.353Z,12.70
2023-05-20T22:26:52.697Z,12.70
2023-05-20T22:29:20.022Z,12.80
2023-05-20T22:31:47.369Z,12.80
2023-05-20T22:34:14.688Z,12.80
2023-05-20T22:36:41.942Z,12.80
2023-05-20T22:39:09.156Z,12.80
2023-05-20T22:41:36.701Z,12.80
2023-05-20T22:44:04.229Z,12.80
2023-05-20T22:46:32.291Z,12.70
2023-05-20T22:48:59.691Z,12.80
2023-05-20T22:51:26.949Z,12.70
2023-05-20T22:53:54.328Z,12.60
2023-05-20T22:56:21.597Z,12.60
2023-05-20T22:58:48.803Z,12.60
2023-05-20T23:01:16.989Z,12.50
2023-05-20T23:03:44.967Z,12.40
2023-05-20T23:06:12.791Z,12.40
2023-05-20T23:08:42.997Z,12.50
2023-05-20T23:11:10.739Z,12.50
2023-05-20T23:13:38.011Z,12.50
2023-05-20T23:16:06.190Z,12.50
2023-05-20T23:18:33.718Z,12.40
2023-05-20T23:21:01.238Z,12.40
2023-05-20T23:23:31.816Z,12.40
2023-05-20T23:26:01.711Z,12.30
2023-05-20T23:28:29.054Z,12.20
2023-05-20T23:30:56.671Z,12.10
2023-05-20T23:33:25.386Z,12.10
2023-05-20T23:35:53.487Z,12.00
2023-05-20T23:38:21.305Z,12.00
2023-05-20T23:40:49.333Z,12.10
2023-05-20T23:43:16.618Z,12.00
2023-05-20T23:45:43.924Z,11.90
2023-05-20T23:48:13.607Z,11.90
2023-05-20T23:50:41.108Z,11.80
2023-05-20T23:53:08.464Z,11.80
2023-05-20T23:55:36.070Z,11.60
2023-05-20T23:58:03.543Z,11.60
